createdAt,value
2019-04-21T00:01:10.595Z,16.70
2019-04-21T00:02:38.082Z,16.70
2019-04-21T00:04:12.425Z,16.70
2019-04-21T00:05:55.793Z,16.60
2019-04-21T00:07:13.479Z,16.70
2019-04-21T00:08:46.914Z,16.60
2019-04-21T00:10:12.339Z,16.60
2019-04-21T00:11:43.353Z,16.60
2019-04-21T00:13:02.701Z,16.60
2019-04-21T00:14:22.212Z,16.60
2019-04-21T00:15:48.868Z,16.60
2019-04-21T00:17:13.184Z,16.60
2019-04-21T00:19:02.337Z,16.60
2019-04-21T00:20:31.083Z,16.60
2019-04-21T00:21:56.601Z,16.50
2019-04-21T00:23:36.894Z,16.50
2019-04-21T00:24:56.834Z,16.50
2019-04-21T00:26:29.026Z,16.50
2019-04-21T00:27:50.380Z,16.50
2019-04-21T00:29:31.382Z,16.50
2019-04-21T00:30:50.840Z,16.50
2019-04-21T00:32:13.606Z,16.50
2019-04-21T00:33:31.943Z,16.50
2019-04-21T00:35:02.522Z,16.50
2019-04-21T00:36:25.953Z,16.50
2019-04-21T00:38:09.396Z,16.50
2019-04-21T00:39:43.639Z,16.40
2019-04-21T00:41:06.666Z,16.40
2019-04-21T00:42:29.087Z,16.40
2019-04-21T00:43:52.169Z,16.40
2019-04-21T00:45:18.182Z,16.40
2019-04-21T00:46:50.274Z,16.40
2019-04-21T00:48:23.328Z,16.40
2019-04-21T00:49:45.360Z,16.40
2019-04-21T00:54:29.380Z,16.40
2019-04-21T00:55:51.134Z,16.40
2019-04-21T00:57:17.305Z,16.40
2019-04-21T00:58:48.702Z,16.40
2019-04-21T01:00:11.873Z,16.40
2019-04-21T01:01:38.253Z,16.40
2019-04-21T01:03:09.331Z,16.40
2019-04-21T01:04:39.976Z,16.40
2019-04-21T01:05:56.099Z,16.40
2019-04-21T01:07:28.178Z,16.40
2019-04-21T01:08:55.700Z,16.40
2019-04-21T01:10:16.236Z,16.40
2019-04-21T01:11:51.869Z,16.40
2019-04-21T01:13:16.946Z,16.40
2019-04-21T01:14:53.959Z,16.40
2019-04-21T01:16:13.831Z,16.40
2019-04-21T01:17:35.272Z,16.50
2019-04-21T01:19:00.828Z,16.40
2019-04-21T01:20:16.957Z,16.40
2019-04-21T01:21:36.803Z,16.50
2019-04-21T01:23:02.449Z,16.50
2019-04-21T01:24:33.031Z,16.50
2019-04-21T01:26:06.869Z,16.50
2019-04-21T01:27:42.154Z,16.40
2019-04-21T01:29:07.010Z,16.50
2019-04-21T01:30:39.008Z,16.40
2019-04-21T01:32:10.521Z,16.40
2019-04-21T01:33:34.472Z,16.40
2019-04-21T01:34:59.394Z,16.40
2019-04-21T01:36:25.778Z,16.40
2019-04-21T01:37:58.413Z,16.40
2019-04-21T01:39:19.795Z,16.40
2019-04-21T01:40:47.626Z,16.30
2019-04-21T01:42:15.734Z,16.30
2019-04-21T01:43:42.309Z,16.20
2019-04-21T01:45:09.449Z,16.20
2019-04-21T01:46:33.641Z,16.20
2019-04-21T01:48:03.615Z,16.20
2019-04-21T01:49:24.505Z,16.20
2019-04-21T01:50:55.758Z,16.20
2019-04-21T01:52:31.808Z,16.10
2019-04-21T01:54:03.539Z,16.10
2019-04-21T01:55:46.689Z,16.10
2019-04-21T01:57:33.325Z,16.10
2019-04-21T01:58:49.375Z,16.10
2019-04-21T02:00:19.046Z,16.10
2019-04-21T02:01:52.404Z,16.10
2019-04-21T02:03:40.630Z,16.10
2019-04-21T02:04:55.778Z,16.10
2019-04-21T02:06:21.252Z,16.10
2019-04-21T02:07:44.765Z,16.10
2019-04-21T02:09:10.142Z,16.10
2019-04-21T02:10:47.712Z,16.10
2019-04-21T02:12:11.969Z,16.20
2019-04-21T02:13:35.453Z,16.10
2019-04-21T02:15:04.891Z,16.10
2019-04-21T02:16:31.332Z,16.10
2019-04-21T02:17:59.481Z,16.10
2019-04-21T02:19:21.568Z,16.20
2019-04-21T02:20:42.272Z,16.10
2019-04-21T02:22:24.608Z,16.20
2019-04-21T02:23:53.827Z,16.20
2019-04-21T02:25:18.496Z,16.20
2019-04-21T02:26:41.584Z,16.20
2019-04-21T02:28:12.313Z,16.10
2019-04-21T02:29:55.900Z,16.20
2019-04-21T02:32:43.418Z,16.10
2019-04-21T02:34:06.523Z,16.10
2019-04-21T02:35:40.273Z,16.10
2019-04-21T02:37:19.492Z,16.00
2019-04-21T02:38:40.256Z,16.00
2019-04-21T02:40:08.412Z,16.00
2019-04-21T02:41:28.348Z,16.00
2019-04-21T02:42:55.980Z,16.00
2019-04-21T02:44:24.340Z,16.00
2019-04-21T02:45:47.554Z,16.00
2019-04-21T02:48:50.880Z,15.90
2019-04-21T02:50:33.999Z,16.00
2019-04-21T02:51:57.926Z,15.90
2019-04-21T02:53:12.034Z,15.90
2019-04-21T02:56:00.236Z,15.90
2019-04-21T02:57:23.311Z,15.90
2019-04-21T02:59:17.302Z,15.90
2019-04-21T03:00:43.074Z,15.90
2019-04-21T03:02:35.132Z,15.80
2019-04-21T03:04:31.411Z,15.90
2019-04-21T03:07:46.389Z,15.90
2019-04-21T03:09:09.164Z,15.90
2019-04-21T03:18:37.690Z,15.90
2019-04-21T03:19:32.999Z,15.90
2019-04-21T03:20:49.693Z,15.90
2019-04-21T03:23:52.255Z,15.90
2019-04-21T03:26:36.596Z,16.00
2019-04-21T03:29:38.518Z,15.90
2019-04-21T03:38:20.877Z,16.00
2019-04-21T03:39:47.010Z,16.00
2019-04-21T03:42:52.964Z,16.00
2019-04-21T03:45:42.266Z,16.00
2019-04-21T03:47:06.957Z,16.00
2019-04-21T03:48:29.130Z,16.00
2019-04-21T03:50:08.724Z,16.00
2019-04-21T03:51:23.187Z,16.10
2019-04-21T03:53:00.632Z,16.10
2019-04-21T03:57:21.803Z,16.10
2019-04-21T03:58:47.041Z,16.10
2019-04-21T04:00:21.896Z,16.10
2019-04-21T04:02:35.017Z,16.10
2019-04-21T04:05:55.593Z,16.20
2019-04-21T04:07:42.499Z,16.20
2019-04-21T04:09:09.549Z,16.10
2019-04-21T04:13:34.300Z,16.20
2019-04-21T04:14:51.796Z,16.20
2019-04-21T04:16:22.160Z,16.20
2019-04-21T04:17:40.366Z,16.20
2019-04-21T04:19:19.236Z,16.20
2019-04-21T04:20:43.766Z,16.20
2019-04-21T04:23:41.459Z,16.20
2019-04-21T04:25:04.998Z,16.20
2019-04-21T04:26:37.398Z,16.20
2019-04-21T04:29:27.918Z,16.20
2019-04-21T04:33:59.940Z,16.20
2019-04-21T04:35:10.876Z,16.30
2019-04-21T04:37:03.447Z,16.30
2019-04-21T04:38:13.530Z,16.30
2019-04-21T04:39:48.850Z,16.30
2019-04-21T04:41:33.185Z,16.30
2019-04-21T04:43:13.170Z,16.30
2019-04-21T04:44:46.305Z,16.30
2019-04-21T04:46:04.274Z,16.30
2019-04-21T04:47:30.132Z,16.30
2019-04-21T04:49:10.648Z,16.20
2019-04-21T04:50:22.612Z,16.20
2019-04-21T04:52:09.747Z,16.20
2019-04-21T04:53:26.322Z,16.20
2019-04-21T04:56:12.191Z,16.30
2019-04-21T05:00:35.055Z,16.30
2019-04-21T05:02:20.572Z,16.30
2019-04-21T05:03:40.164Z,16.30
2019-04-21T05:05:11.335Z,16.30
2019-04-21T05:07:57.790Z,16.30
2019-04-21T05:09:27.044Z,16.30
2019-04-21T05:12:11.740Z,16.30
2019-04-21T05:13:51.149Z,16.30
2019-04-21T05:18:05.401Z,16.40
2019-04-21T05:19:32.730Z,16.40
2019-04-21T05:21:03.567Z,16.40
2019-04-21T05:22:25.984Z,16.40
2019-04-21T05:23:48.526Z,16.40
2019-04-21T05:25:12.154Z,16.40
2019-04-21T05:26:42.283Z,16.30
2019-04-21T05:28:00.110Z,16.30
2019-04-21T05:31:44.447Z,16.30
2019-04-21T05:33:39.909Z,16.20
2019-04-21T05:35:16.962Z,16.20
2019-04-21T05:37:07.198Z,16.20
2019-04-21T05:38:57.076Z,16.10
2019-04-21T05:40:33.529Z,16.10
2019-04-21T05:41:54.252Z,16.00
2019-04-21T05:43:32.446Z,15.90
2019-04-21T05:45:31.270Z,15.90
2019-04-21T05:46:25.458Z,15.90
2019-04-21T05:48:12.068Z,15.80
2019-04-21T05:54:19.303Z,15.70
2019-04-21T05:55:40.458Z,15.70
2019-04-21T05:56:59.808Z,15.60
2019-04-21T06:04:38.847Z,15.60
2019-04-21T06:09:39.753Z,15.50
2019-04-21T06:13:38.729Z,15.50
2019-04-21T06:14:54.368Z,15.50
2019-04-21T06:18:58.370Z,15.50
2019-04-21T06:20:34.967Z,15.50
2019-04-21T06:21:58.960Z,15.50
2019-04-21T06:23:30.496Z,15.50
2019-04-21T06:25:24.354Z,15.50
2019-04-21T06:27:58.716Z,15.50
2019-04-21T06:29:26.456Z,15.50
2019-04-21T06:33:20.226Z,15.50
2019-04-21T06:43:33.309Z,15.40
2019-04-21T06:49:25.012Z,15.40
2019-04-21T06:53:06.822Z,15.40
2019-04-21T06:54:35.552Z,15.30
2019-04-21T07:00:38.560Z,15.30
2019-04-21T07:04:27.600Z,15.30
2019-04-21T07:06:40.401Z,15.30
2019-04-21T07:10:12.234Z,15.20
2019-04-21T07:12:06.097Z,15.30
2019-04-21T07:14:22.445Z,15.20
2019-04-21T07:17:59.922Z,15.10
2019-04-21T07:21:45.796Z,15.10
2019-04-21T07:27:27.232Z,15.20
2019-04-21T07:33:44.737Z,15.10
2019-04-21T07:34:46.102Z,15.10
2019-04-21T07:40:12.361Z,15.10
2019-04-21T07:41:38.785Z,15.10
2019-04-21T07:43:40.963Z,15.10
2019-04-21T07:47:15.777Z,15.10
2019-04-21T07:48:49.457Z,15.10
2019-04-21T07:57:44.098Z,15.10
2019-04-21T08:03:20.714Z,15.00
2019-04-21T08:06:49.557Z,15.20
2019-04-21T08:08:01.591Z,15.10
2019-04-21T08:11:57.429Z,15.20
2019-04-21T08:15:23.989Z,15.20
2019-04-21T08:20:34.870Z,15.20
2019-04-21T08:24:00.184Z,15.20
2019-04-21T08:30:01.639Z,15.20
2019-04-21T08:31:32.316Z,15.20
2019-04-21T08:33:08.817Z,15.20
2019-04-21T08:37:04.053Z,15.20
2019-04-21T08:38:15.070Z,15.30
2019-04-21T08:41:17.048Z,15.30
2019-04-21T08:42:41.592Z,15.30
2019-04-21T08:44:06.946Z,15.30
2019-04-21T08:45:38.605Z,15.40
2019-04-21T08:47:09.640Z,15.40
2019-04-21T08:48:33.896Z,15.40
2019-04-21T08:49:53.842Z,15.40
2019-04-21T08:51:27.684Z,15.40
2019-04-21T08:54:21.498Z,15.40
2019-04-21T08:56:10.279Z,15.40
2019-04-21T08:58:05.201Z,15.40
2019-04-21T08:59:31.186Z,15.40
2019-04-21T09:01:04.068Z,15.30
2019-04-21T09:02:35.264Z,15.30
2019-04-21T09:03:59.783Z,15.30
2019-04-21T09:05:31.209Z,15.30
2019-04-21T09:08:28.068Z,15.30
2019-04-21T09:09:54.443Z,15.30
2019-04-21T09:11:16.209Z,15.30
2019-04-21T09:12:46.637Z,15.30
2019-04-21T09:14:13.724Z,15.40
2019-04-21T09:15:38.145Z,15.40
2019-04-21T09:17:00.492Z,15.40
2019-04-21T09:18:31.373Z,15.40
2019-04-21T09:20:11.903Z,15.50
2019-04-21T09:21:25.537Z,15.50
2019-04-21T09:22:54.247Z,15.60
2019-04-21T09:24:22.026Z,15.70
2019-04-21T09:25:53.036Z,15.70
2019-04-21T09:27:15.312Z,15.70
2019-04-21T09:28:39.476Z,15.70
2019-04-21T09:29:57.590Z,15.70
2019-04-21T09:31:25.953Z,15.70
2019-04-21T09:32:51.670Z,15.70
2019-04-21T09:34:22.384Z,15.80
2019-04-21T09:35:51.239Z,15.80
2019-04-21T09:37:20.321Z,15.80
2019-04-21T09:38:38.797Z,15.80
2019-04-21T09:40:04.959Z,15.80
2019-04-21T09:41:34.341Z,15.80
2019-04-21T09:43:03.251Z,15.80
2019-04-21T09:44:31.553Z,15.80
2019-04-21T09:45:54.133Z,15.80
2019-04-21T09:47:23.422Z,15.80
2019-04-21T09:48:59.048Z,15.80
2019-04-21T09:50:22.102Z,15.80
2019-04-21T09:51:48.301Z,15.80
2019-04-21T09:53:24.034Z,15.80
2019-04-21T09:54:52.045Z,15.80
2019-04-21T09:56:14.441Z,15.80
2019-04-21T09:57:43.119Z,15.80
2019-04-21T09:59:10.156Z,15.80
2019-04-21T10:00:36.330Z,15.90
2019-04-21T10:02:07.719Z,15.90
2019-04-21T10:03:24.681Z,15.90
2019-04-21T10:04:50.502Z,15.90
2019-04-21T10:06:18.754Z,15.90
2019-04-21T10:07:44.301Z,15.90
2019-04-21T10:09:14.338Z,15.90
2019-04-21T10:10:38.384Z,15.90
2019-04-21T10:12:05.527Z,15.90
2019-04-21T10:13:37.254Z,15.90
2019-04-21T10:15:04.195Z,16.00
2019-04-21T10:20:45.461Z,16.00
2019-04-21T10:22:11.058Z,16.00
2019-04-21T10:23:36.552Z,16.00
2019-04-21T10:25:02.971Z,16.00
2019-04-21T10:26:28.729Z,16.00
2019-04-21T10:27:54.920Z,16.00
2019-04-21T10:29:25.746Z,16.00
2019-04-21T10:30:48.981Z,16.00
2019-04-21T10:32:15.483Z,16.00
2019-04-21T10:33:42.068Z,16.00
2019-04-21T10:35:08.280Z,16.00
2019-04-21T10:36:35.038Z,16.00
2019-04-21T10:40:25.576Z,16.00
2019-04-21T10:41:51.178Z,16.00
2019-04-21T10:43:21.639Z,16.00
2019-04-21T10:44:45.123Z,15.90
2019-04-21T10:46:11.095Z,16.00
2019-04-21T10:47:37.222Z,16.00
2019-04-21T10:49:02.755Z,16.00
2019-04-21T10:50:28.758Z,15.90
2019-04-21T10:51:55.014Z,16.00
2019-04-21T10:53:34.459Z,16.00
2019-04-21T10:55:23.058Z,16.00
2019-04-21T10:56:33.242Z,16.00
2019-04-21T10:58:09.036Z,16.00
2019-04-21T10:59:35.325Z,16.00
2019-04-21T11:01:08.368Z,16.00
2019-04-21T11:02:48.846Z,16.10
2019-04-21T11:04:35.179Z,16.00
2019-04-21T11:05:58.944Z,16.10
2019-04-21T11:08:15.787Z,16.10
2019-04-21T11:09:33.944Z,16.10
2019-04-21T11:10:59.654Z,16.10
2019-04-21T11:12:25.871Z,16.10
2019-04-21T11:13:52.641Z,16.10
2019-04-21T11:15:19.081Z,16.10
2019-04-21T11:16:47.479Z,16.10
2019-04-21T11:18:15.708Z,16.10
2019-04-21T11:19:41.278Z,16.10
2019-04-21T11:21:07.127Z,16.10
2019-04-21T11:22:33.994Z,16.10
2019-04-21T11:23:59.992Z,16.20
2019-04-21T11:25:26.257Z,16.20
2019-04-21T11:26:52.033Z,16.20
2019-04-21T11:28:18.604Z,16.20
2019-04-21T11:29:44.568Z,16.20
2019-04-21T11:31:11.068Z,16.30
2019-04-21T11:32:37.082Z,16.20
2019-04-21T11:34:03.056Z,16.20
2019-04-21T11:35:28.834Z,16.30
2019-04-21T11:36:54.446Z,16.30
2019-04-21T11:38:27.311Z,16.30
2019-04-21T11:39:59.365Z,16.30
2019-04-21T11:41:19.661Z,16.40
2019-04-21T11:42:45.966Z,16.30
2019-04-21T11:44:12.090Z,16.40
2019-04-21T11:45:40.055Z,16.40
2019-04-21T11:47:08.388Z,16.40
2019-04-21T11:48:34.643Z,16.40
2019-04-21T11:50:01.120Z,16.40
2019-04-21T11:51:26.985Z,16.40
2019-04-21T11:52:52.883Z,16.40
2019-04-21T11:54:19.145Z,16.30
2019-04-21T11:55:47.016Z,16.30
2019-04-21T11:57:19.303Z,16.40
2019-04-21T11:58:39.905Z,16.30
2019-04-21T12:00:06.888Z,16.30
2019-04-21T12:01:33.809Z,16.30
2019-04-21T12:02:59.660Z,16.30
2019-04-21T12:04:25.441Z,16.30
2019-04-21T12:05:51.231Z,16.30
2019-04-21T12:07:17.553Z,16.30
2019-04-21T12:08:47.615Z,16.40
2019-04-21T12:10:11.318Z,16.40
2019-04-21T12:11:37.119Z,16.40
2019-04-21T12:13:05.553Z,16.40
2019-04-21T12:14:30.300Z,16.40
2019-04-21T12:15:57.134Z,16.40
2019-04-21T12:17:23.717Z,16.40
2019-04-21T12:18:49.286Z,16.40
2019-04-21T12:20:15.253Z,16.40
2019-04-21T12:21:53.453Z,16.40
2019-04-21T12:23:08.792Z,16.50
2019-04-21T12:24:36.808Z,16.50
2019-04-21T12:26:03.154Z,16.50
2019-04-21T12:27:29.835Z,16.50
2019-04-21T12:28:55.826Z,16.50
2019-04-21T12:30:21.881Z,16.50
2019-04-21T12:32:14.248Z,16.60
2019-04-21T12:33:56.145Z,16.60
2019-04-21T12:35:21.985Z,16.60
2019-04-21T12:36:48.634Z,16.60
2019-04-21T12:38:14.401Z,16.60
2019-04-21T12:39:59.011Z,16.60
2019-04-21T12:41:24.725Z,16.60
2019-04-21T12:42:50.444Z,16.60
2019-04-21T12:44:16.114Z,16.60
2019-04-21T12:45:42.026Z,16.70
2019-04-21T12:47:08.465Z,16.70
2019-04-21T12:48:35.831Z,16.60
2019-04-21T12:50:02.622Z,16.60
2019-04-21T12:51:30.072Z,16.60
2019-04-21T12:52:55.900Z,16.60
2019-04-21T12:54:21.727Z,16.60
2019-04-21T12:55:48.065Z,16.60
2019-04-21T12:57:14.014Z,16.60
2019-04-21T12:58:39.568Z,16.60
2019-04-21T13:01:39.450Z,16.60
2019-04-21T13:03:05.789Z,16.60
2019-04-21T13:04:31.595Z,16.70
2019-04-21T13:05:58.062Z,16.60
2019-04-21T13:07:23.931Z,16.70
2019-04-21T13:08:55.663Z,16.60
2019-04-21T13:10:18.132Z,16.70
2019-04-21T13:11:48.632Z,16.70
2019-04-21T13:13:14.550Z,16.70
2019-04-21T13:14:49.613Z,16.70
2019-04-21T13:16:23.352Z,16.70
2019-04-21T13:17:50.252Z,16.70
2019-04-21T13:19:15.832Z,16.70
2019-04-21T13:20:42.281Z,16.80
2019-04-21T13:22:08.132Z,16.70
2019-04-21T13:23:34.880Z,16.70
2019-04-21T13:25:00.569Z,16.70
2019-04-21T13:26:32.737Z,16.80
2019-04-21T13:27:54.386Z,16.80
2019-04-21T13:29:20.516Z,16.80
2019-04-21T13:30:46.376Z,16.90
2019-04-21T13:32:12.618Z,16.90
2019-04-21T13:33:39.780Z,16.90
2019-04-21T13:35:06.093Z,16.90
2019-04-21T13:36:31.808Z,16.90
2019-04-21T13:37:58.378Z,16.90
2019-04-21T13:40:01.573Z,16.80
2019-04-21T13:41:29.724Z,16.80
2019-04-21T13:42:46.701Z,16.70
2019-04-21T13:44:13.311Z,16.70
2019-04-21T13:45:39.472Z,16.60
2019-04-21T13:47:05.299Z,16.60
2019-04-21T13:48:30.888Z,16.60
2019-04-21T13:49:59.221Z,16.60
2019-04-21T13:51:23.427Z,16.60
2019-04-21T13:52:48.954Z,16.60
2019-04-21T13:54:15.669Z,16.60
2019-04-21T13:55:42.651Z,16.60
2019-04-21T13:57:08.419Z,16.60
2019-04-21T13:58:34.583Z,16.70
2019-04-21T14:00:01.337Z,16.70
2019-04-21T14:01:27.618Z,16.70
2019-04-21T14:02:54.593Z,16.70
2019-04-21T14:04:20.195Z,16.70
2019-04-21T14:05:46.510Z,16.80
2019-04-21T14:07:12.283Z,16.80
2019-04-21T14:08:40.186Z,16.80
2019-04-21T14:10:09.931Z,16.80
2019-04-21T14:11:33.577Z,16.80
2019-04-21T14:13:00.371Z,16.80
2019-04-21T14:14:26.226Z,16.80
2019-04-21T14:15:51.935Z,16.80
2019-04-21T14:17:17.478Z,16.80
2019-04-21T14:18:42.929Z,16.80
2019-04-21T14:20:10.899Z,16.80
2019-04-21T14:21:37.077Z,16.90
2019-04-21T14:23:13.524Z,16.90
2019-04-21T14:24:30.988Z,16.90
2019-04-21T14:25:57.517Z,16.90
2019-04-21T14:27:24.009Z,16.90
2019-04-21T14:28:49.646Z,16.90
2019-04-21T14:30:16.560Z,16.90
2019-04-21T14:31:42.245Z,16.90
2019-04-21T14:33:07.960Z,16.90
2019-04-21T14:34:34.043Z,17.00
2019-04-21T14:36:00.962Z,17.00
2019-04-21T14:37:26.625Z,17.00
2019-04-21T14:38:52.390Z,17.00
2019-04-21T14:40:23.645Z,17.00
2019-04-21T14:41:46.364Z,17.00
2019-04-21T14:43:12.062Z,17.00
2019-04-21T14:44:38.759Z,17.10
2019-04-21T14:46:26.947Z,17.10
2019-04-21T14:47:59.334Z,17.10
2019-04-21T14:49:51.017Z,17.10
2019-04-21T14:51:47.545Z,17.20
2019-04-21T14:53:20.200Z,17.10
2019-04-21T14:54:56.317Z,17.20
2019-04-21T14:56:22.185Z,17.20
2019-04-21T14:57:47.785Z,17.20
2019-04-21T14:59:13.443Z,17.20
2019-04-21T15:01:02.012Z,17.30
2019-04-21T15:02:27.864Z,17.20
2019-04-21T15:03:53.388Z,17.30
2019-04-21T15:05:19.702Z,17.30
2019-04-21T15:06:45.615Z,17.40
2019-04-21T15:08:11.159Z,17.40
2019-04-21T15:09:38.942Z,17.40
2019-04-21T15:11:05.134Z,17.50
2019-04-21T15:12:31.812Z,17.50
2019-04-21T15:13:57.842Z,17.50
2019-04-21T15:15:23.558Z,17.50
2019-04-21T15:16:49.153Z,17.60
2019-04-21T15:18:14.760Z,17.60
2019-04-21T15:19:42.916Z,17.60
2019-04-21T15:21:07.795Z,17.60
2019-04-21T15:22:34.562Z,17.60
2019-04-21T15:24:00.467Z,17.60
2019-04-21T15:25:26.105Z,17.70
2019-04-21T15:26:53.038Z,17.70
2019-04-21T15:28:19.976Z,17.70
2019-04-21T15:29:46.754Z,17.70
2019-04-21T15:31:23.095Z,17.70
2019-04-21T15:32:40.232Z,17.70
2019-04-21T15:34:07.314Z,17.70
2019-04-21T15:35:33.106Z,17.70
2019-04-21T15:36:59.800Z,17.70
2019-04-21T15:38:25.572Z,17.70
2019-04-21T15:39:51.200Z,17.80
2019-04-21T15:41:16.637Z,17.70
2019-04-21T15:42:42.252Z,17.80
2019-04-21T15:44:08.322Z,17.80
2019-04-21T15:45:35.016Z,17.70
2019-04-21T15:47:01.927Z,17.70
2019-04-21T15:48:28.807Z,17.80
2019-04-21T15:50:02.949Z,17.70
2019-04-21T15:51:22.067Z,17.70
2019-04-21T15:52:47.680Z,17.70
2019-04-21T15:54:14.392Z,17.80
2019-04-21T15:55:57.384Z,17.70
2019-04-21T15:57:35.539Z,17.70
2019-04-21T15:59:36.467Z,17.80
2019-04-21T16:01:08.175Z,17.70
2019-04-21T16:02:46.773Z,17.70
2019-04-21T16:04:12.662Z,17.70
2019-04-21T16:05:40.490Z,17.70
2019-04-21T16:07:06.117Z,17.70
2019-04-21T16:08:33.246Z,17.70
2019-04-21T16:09:59.824Z,17.70
2019-04-21T16:11:25.924Z,17.70
2019-04-21T16:12:52.158Z,17.70
2019-04-21T16:14:18.670Z,17.70
2019-04-21T16:15:44.336Z,17.70
2019-04-21T16:17:09.809Z,17.80
2019-04-21T16:18:36.301Z,17.80
2019-04-21T16:20:02.132Z,17.70
2019-04-21T16:21:27.691Z,17.80
2019-04-21T16:22:54.654Z,17.80
2019-04-21T16:24:21.273Z,17.80
2019-04-21T16:25:46.876Z,17.80
2019-04-21T16:27:12.650Z,17.80
2019-04-21T16:28:39.468Z,17.80
2019-04-21T16:30:07.934Z,17.80
2019-04-21T16:31:34.322Z,17.80
2019-04-21T16:33:01.946Z,17.80
2019-04-21T16:34:38.987Z,17.80
2019-04-21T16:35:55.950Z,17.80
2019-04-21T16:37:21.687Z,17.80
2019-04-21T16:38:47.289Z,17.80
2019-04-21T16:40:13.778Z,17.80
2019-04-21T16:41:40.375Z,17.80
2019-04-21T16:43:06.211Z,17.80
2019-04-21T16:44:31.758Z,17.80
2019-04-21T16:45:57.235Z,17.80
2019-04-21T16:47:24.052Z,17.90
2019-04-21T16:48:49.812Z,17.90
2019-04-21T16:50:16.292Z,17.90
2019-04-21T16:51:42.306Z,17.90
2019-04-21T16:53:24.063Z,17.90
2019-04-21T16:54:53.897Z,17.90
2019-04-21T16:56:39.612Z,17.90
2019-04-21T16:58:34.510Z,17.90
2019-04-21T17:00:04.878Z,17.90
2019-04-21T17:01:31.954Z,17.90
2019-04-21T17:02:58.803Z,17.80
2019-04-21T17:04:24.548Z,17.80
2019-04-21T17:05:50.184Z,17.90
2019-04-21T17:07:15.812Z,17.80
2019-04-21T17:08:41.238Z,17.80
2019-04-21T17:10:08.543Z,17.80
2019-04-21T17:11:37.235Z,17.70
2019-04-21T17:13:02.301Z,17.60
2019-04-21T17:14:45.054Z,17.70
2019-04-21T17:16:15.345Z,17.70
2019-04-21T17:17:43.334Z,17.70
2019-04-21T17:19:00.639Z,17.60
2019-04-21T17:20:33.362Z,17.60
2019-04-21T17:21:45.609Z,17.50
2019-04-21T17:23:11.617Z,17.50
2019-04-21T17:24:38.015Z,17.50
2019-04-21T17:26:03.722Z,17.50
2019-04-21T17:27:29.456Z,17.50
2019-04-21T17:28:56.459Z,17.50
2019-04-21T17:30:24.256Z,17.50
2019-04-21T17:31:49.952Z,17.50
2019-04-21T17:33:21.175Z,17.50
2019-04-21T17:34:43.753Z,17.50
2019-04-21T17:36:09.535Z,17.40
2019-04-21T17:37:36.214Z,17.40
2019-04-21T17:39:02.263Z,17.40
2019-04-21T17:40:29.566Z,17.40
2019-04-21T17:42:07.036Z,17.40
2019-04-21T17:43:23.732Z,17.50
2019-04-21T17:44:50.951Z,17.40
2019-04-21T17:46:24.453Z,17.40
2019-04-21T17:57:45.510Z,17.30
2019-04-21T17:59:28.000Z,17.30
2019-04-21T18:01:20.885Z,17.30
2019-04-21T18:02:51.493Z,17.30
2019-04-21T18:04:21.165Z,17.30
2019-04-21T18:05:59.488Z,17.30
2019-04-21T18:07:45.394Z,17.30
2019-04-21T18:09:12.248Z,17.30
2019-04-21T18:10:33.425Z,17.30
2019-04-21T18:12:05.759Z,17.30
2019-04-21T18:13:14.317Z,17.30
2019-04-21T18:14:51.864Z,17.30
2019-04-21T18:16:13.359Z,17.30
2019-04-21T18:17:34.206Z,17.20
2019-04-21T18:18:59.738Z,17.30
2019-04-21T18:20:30.028Z,17.20
2019-04-21T18:22:12.813Z,17.20
2019-04-21T18:24:00.739Z,17.20
2019-04-21T18:25:31.941Z,17.20
2019-04-21T18:26:55.407Z,17.30
2019-04-21T18:28:18.626Z,17.30
2019-04-21T18:29:44.554Z,17.30
2019-04-21T18:31:14.621Z,17.30
2019-04-21T18:32:42.461Z,17.30
2019-04-21T18:34:31.042Z,17.30
2019-04-21T18:36:34.632Z,17.30
2019-04-21T18:38:26.064Z,17.30
2019-04-21T18:40:02.410Z,17.30
2019-04-21T18:41:21.778Z,17.20
2019-04-21T18:43:27.656Z,17.30
2019-04-21T18:45:05.774Z,17.30
2019-04-21T18:46:34.143Z,17.30
2019-04-21T18:48:29.293Z,17.30
2019-04-21T18:49:50.303Z,17.30
2019-04-21T18:51:41.385Z,17.30
2019-04-21T18:53:13.678Z,17.30
2019-04-21T18:54:44.397Z,17.30
2019-04-21T18:56:03.933Z,17.30
2019-04-21T18:57:33.097Z,17.40
2019-04-21T18:58:51.166Z,17.30
2019-04-21T19:00:24.349Z,17.30
2019-04-21T19:01:51.540Z,17.30
2019-04-21T19:03:14.055Z,17.30
2019-04-21T19:04:40.534Z,17.40
2019-04-21T19:06:12.733Z,17.40
2019-04-21T19:07:58.443Z,17.30
2019-04-21T19:09:14.390Z,17.40
2019-04-21T19:10:52.292Z,17.30
2019-04-21T19:12:11.728Z,17.40
2019-04-21T19:14:15.004Z,17.30
2019-04-21T19:15:20.309Z,17.30
2019-04-21T19:21:14.125Z,17.40
2019-04-21T19:22:41.995Z,17.30
2019-04-21T19:24:20.217Z,17.40
2019-04-21T19:25:41.214Z,17.40
2019-04-21T19:27:08.019Z,17.40
2019-04-21T19:28:36.235Z,17.30
2019-04-21T19:30:05.465Z,17.40
2019-04-21T19:31:32.401Z,17.40
2019-04-21T19:32:52.926Z,17.40
2019-04-21T19:34:10.377Z,17.30
2019-04-21T19:35:29.820Z,17.30
2019-04-21T19:37:00.692Z,17.40
2019-04-21T19:38:31.662Z,17.30
2019-04-21T19:40:01.810Z,17.30
2019-04-21T19:41:32.750Z,17.40
2019-04-21T19:42:55.733Z,17.30
2019-04-21T19:44:30.705Z,17.30
2019-04-21T19:45:54.119Z,17.30
2019-04-21T19:47:28.094Z,17.30
2019-04-21T19:48:54.099Z,17.30
2019-04-21T19:50:19.420Z,17.30
2019-04-21T19:51:42.858Z,17.30
2019-04-21T19:53:03.435Z,17.20
2019-04-21T19:54:29.979Z,17.30
2019-04-21T19:55:50.007Z,17.30
2019-04-21T19:57:16.671Z,17.30
2019-04-21T19:58:45.504Z,17.20
2019-04-21T20:00:11.606Z,17.30
2019-04-21T20:01:37.515Z,17.30
2019-04-21T20:03:03.146Z,17.30
2019-04-21T20:04:34.118Z,17.20
2019-04-21T20:06:06.019Z,17.30
2019-04-21T20:07:39.885Z,17.20
2019-04-21T20:09:09.623Z,17.30
2019-04-21T20:10:42.272Z,17.30
2019-04-21T20:12:02.857Z,17.30
2019-04-21T20:13:40.843Z,17.30
2019-04-21T20:15:04.794Z,17.30
2019-04-21T20:16:34.006Z,17.30
2019-04-21T20:17:50.239Z,17.30
2019-04-21T20:19:07.775Z,17.30
2019-04-21T20:20:28.970Z,17.30
2019-04-21T20:21:54.596Z,17.20
2019-04-21T20:23:27.820Z,17.30
2019-04-21T20:24:56.428Z,17.30
2019-04-21T20:26:15.976Z,17.30
2019-04-21T20:27:52.822Z,17.30
2019-04-21T20:29:27.724Z,17.30
2019-04-21T20:31:00.234Z,17.30
2019-04-21T20:32:26.604Z,17.30
2019-04-21T20:33:59.614Z,17.30
2019-04-21T20:35:23.519Z,17.30
2019-04-21T20:36:51.856Z,17.30
2019-04-21T20:38:11.419Z,17.20
2019-04-21T20:39:25.355Z,17.30
2019-04-21T20:40:57.590Z,17.20
2019-04-21T20:42:34.647Z,17.30
2019-04-21T20:44:00.860Z,17.30
2019-04-21T20:46:55.542Z,17.20
2019-04-21T20:48:17.318Z,17.30
2019-04-21T20:49:41.530Z,17.30
2019-04-21T20:51:18.575Z,17.20
2019-04-21T20:52:47.884Z,17.20
2019-04-21T20:54:17.598Z,17.30
2019-04-21T20:55:35.443Z,17.20
2019-04-21T20:57:21.901Z,17.30
2019-04-21T20:58:37.277Z,17.20
2019-04-21T21:00:05.751Z,17.20
2019-04-21T21:01:37.544Z,17.20
2019-04-21T21:03:02.525Z,17.20
2019-04-21T21:04:17.209Z,17.20
2019-04-21T21:05:47.995Z,17.20
2019-04-21T21:07:28.310Z,17.20
2019-04-21T21:08:44.590Z,17.20
2019-04-21T21:10:17.909Z,17.20
2019-04-21T21:11:53.559Z,17.20
2019-04-21T21:13:16.495Z,17.20
2019-04-21T21:14:31.952Z,17.20
2019-04-21T21:16:12.206Z,17.20
2019-04-21T21:20:27.864Z,17.20
2019-04-21T21:21:48.645Z,17.20
2019-04-21T21:23:14.053Z,17.20
2019-04-21T21:24:46.371Z,17.20
2019-04-21T21:26:17.970Z,17.30
2019-04-21T21:27:36.780Z,17.30
2019-04-21T21:29:03.816Z,17.20
2019-04-21T21:30:32.300Z,17.20
2019-04-21T21:32:11.239Z,17.20
2019-04-21T21:33:26.694Z,17.20
2019-04-21T21:34:56.657Z,17.20
2019-04-21T21:36:24.050Z,17.20
2019-04-21T21:37:54.931Z,17.20
2019-04-21T21:39:18.340Z,17.20
2019-04-21T21:40:46.559Z,17.20
2019-04-21T21:42:01.852Z,17.20
2019-04-21T21:43:26.704Z,17.20
2019-04-21T21:44:58.632Z,17.10
2019-04-21T21:46:37.224Z,17.20
2019-04-21T21:48:00.727Z,17.20
2019-04-21T21:49:29.451Z,17.20
2019-04-21T21:50:49.955Z,17.10
2019-04-21T21:52:16.909Z,17.20
2019-04-21T21:53:38.156Z,17.10
2019-04-21T21:55:01.677Z,17.10
2019-04-21T21:56:29.174Z,17.10
2019-04-21T21:58:03.843Z,17.10
2019-04-21T21:59:33.068Z,17.20
2019-04-21T22:01:01.193Z,17.10
2019-04-21T22:02:34.949Z,17.20
2019-04-21T22:03:59.209Z,17.20
2019-04-21T22:05:25.436Z,17.20
2019-04-21T22:06:55.335Z,17.20
2019-04-21T22:08:16.382Z,17.20